sensor_id;sensor_type;location;lat;lon;timestamp;P1;durP1;ratioP1;P2;durP2;ratioP2
11514;SDS011;5814;41.936;25.556;2022-08-24T00:01:38;10.05;;;9.25;;
11514;SDS011;5814;41.936;25.556;2022-08-24T00:04:05;10.32;;;9.52;;
11514;SDS011;5814;41.936;25.556;2022-08-24T00:06:32;10.88;;;10.07;;
11514;SDS011;5814;41.936;25.556;2022-08-24T00:08:59;10.85;;;10.15;;
11514;SDS011;5814;41.936;25.556;2022-08-24T00:11:26;10.95;;;10.15;;
11514;SDS011;5814;41.936;25.556;2022-08-24T00:13:54;10.85;;;10.02;;
11514;SDS011;5814;41.936;25.556;2022-08-24T00:16:21;10.88;;;10.18;;
11514;SDS011;5814;41.936;25.556;2022-08-24T00:18:48;10.48;;;9.88;;
11514;SDS011;5814;41.936;25.556;2022-08-24T00:21:15;10.98;;;10.20;;
11514;SDS011;5814;41.936;25.556;2022-08-24T00:23:42;10.75;;;9.95;;
11514;SDS011;5814;41.936;25.556;2022-08-24T00:26:10;11.07;;;10.27;;
11514;SDS011;5814;41.936;25.556;2022-08-24T00:28:37;11.05;;;10.15;;
11514;SDS011;5814;41.936;25.556;2022-08-24T00:31:06;11.00;;;10.30;;
11514;SDS011;5814;41.936;25.556;2022-08-24T00:33:33;11.20;;;10.30;;
11514;SDS011;5814;41.936;25.556;2022-08-24T00:36:00;11.50;;;10.60;;
11514;SDS011;5814;41.936;25.556;2022-08-24T00:38:27;11.77;;;11.00;;
11514;SDS011;5814;41.936;25.556;2022-08-24T00:40:54;11.90;;;10.90;;
11514;SDS011;5814;41.936;25.556;2022-08-24T00:43:23;11.90;;;10.98;;
11514;SDS011;5814;41.936;25.556;2022-08-24T00:46:01;12.20;;;11.15;;
11514;SDS011;5814;41.936;25.556;2022-08-24T00:48:24;14.02;;;13.00;;
11514;SDS011;5814;41.936;25.556;2022-08-24T00:50:53;13.60;;;12.48;;
11514;SDS011;5814;41.936;25.556;2022-08-24T00:53:25;13.77;;;12.57;;
11514;SDS011;5814;41.936;25.556;2022-08-24T00:56:07;14.43;;;13.43;;
11514;SDS011;5814;41.936;25.556;2022-08-24T00:58:37;16.10;;;14.80;;
11514;SDS011;5814;41.936;25.556;2022-08-24T01:01:04;16.02;;;14.93;;
11514;SDS011;5814;41.936;25.556;2022-08-24T01:03:31;16.35;;;14.95;;
11514;SDS011;5814;41.936;25.556;2022-08-24T01:06:02;16.27;;;15.13;;
11514;SDS011;5814;41.936;25.556;2022-08-24T01:08:29;16.33;;;15.13;;
11514;SDS011;5814;41.936;25.556;2022-08-24T01:10:58;16.37;;;15.27;;
11514;SDS011;5814;41.936;25.556;2022-08-24T01:13:24;17.48;;;15.98;;
11514;SDS011;5814;41.936;25.556;2022-08-24T01:15:52;17.33;;;16.00;;
11514;SDS011;5814;41.936;25.556;2022-08-24T01:18:20;17.08;;;15.77;;
11514;SDS011;5814;41.936;25.556;2022-08-24T01:20:55;17.48;;;16.12;;
11514;SDS011;5814;41.936;25.556;2022-08-24T01:23:26;16.77;;;15.48;;
11514;SDS011;5814;41.936;25.556;2022-08-24T01:26:06;17.73;;;15.95;;
11514;SDS011;5814;41.936;25.556;2022-08-24T01:28:32;16.87;;;15.30;;
11514;SDS011;5814;41.936;25.556;2022-08-24T01:30:59;16.73;;;15.43;;
11514;SDS011;5814;41.936;25.556;2022-08-24T01:33:28;16.65;;;15.45;;
11514;SDS011;5814;41.936;25.556;2022-08-24T01:36:04;16.33;;;15.02;;
11514;SDS011;5814;41.936;25.556;2022-08-24T01:38:26;16.15;;;14.63;;
11514;SDS011;5814;41.936;25.556;2022-08-24T01:40:55;16.90;;;15.60;;
11514;SDS011;5814;41.936;25.556;2022-08-24T01:43:21;15.90;;;14.75;;
11514;SDS011;5814;41.936;25.556;2022-08-24T01:45:49;15.70;;;14.38;;
11514;SDS011;5814;41.936;25.556;2022-08-24T01:48:16;14.07;;;12.98;;
11514;SDS011;5814;41.936;25.556;2022-08-24T01:50:43;14.45;;;13.48;;
11514;SDS011;5814;41.936;25.556;2022-08-24T01:53:11;13.82;;;12.80;;
11514;SDS011;5814;41.936;25.556;2022-08-24T01:55:38;13.45;;;12.27;;
11514;SDS011;5814;41.936;25.556;2022-08-24T01:58:05;12.80;;;11.88;;
11514;SDS011;5814;41.936;25.556;2022-08-24T02:00:32;13.70;;;12.63;;
11514;SDS011;5814;41.936;25.556;2022-08-24T02:02:59;13.30;;;12.37;;
11514;SDS011;5814;41.936;25.556;2022-08-24T02:05:27;13.32;;;12.25;;
11514;SDS011;5814;41.936;25.556;2022-08-24T02:07:54;14.77;;;13.43;;
11514;SDS011;5814;41.936;25.556;2022-08-24T02:10:21;14.35;;;12.18;;
11514;SDS011;5814;41.936;25.556;2022-08-24T02:12:48;13.15;;;12.25;;
11514;SDS011;5814;41.936;25.556;2022-08-24T02:15:16;13.18;;;11.98;;
11514;SDS011;5814;41.936;25.556;2022-08-24T02:17:43;13.70;;;12.50;;
11514;SDS011;5814;41.936;25.556;2022-08-24T02:20:10;13.02;;;12.02;;
11514;SDS011;5814;41.936;25.556;2022-08-24T02:22:37;13.65;;;12.57;;
11514;SDS011;5814;41.936;25.556;2022-08-24T02:25:04;13.93;;;12.70;;
11514;SDS011;5814;41.936;25.556;2022-08-24T02:27:32;14.18;;;13.10;;
11514;SDS011;5814;41.936;25.556;2022-08-24T02:29:59;13.62;;;12.75;;
11514;SDS011;5814;41.936;25.556;2022-08-24T02:32:26;14.98;;;13.90;;
11514;SDS011;5814;41.936;25.556;2022-08-24T02:34:56;14.45;;;13.27;;
11514;SDS011;5814;41.936;25.556;2022-08-24T02:37:23;14.60;;;13.25;;
11514;SDS011;5814;41.936;25.556;2022-08-24T02:39:57;15.15;;;13.90;;
11514;SDS011;5814;41.936;25.556;2022-08-24T02:42:24;14.90;;;13.77;;
11514;SDS011;5814;41.936;25.556;2022-08-24T02:44:51;16.10;;;14.82;;
11514;SDS011;5814;41.936;25.556;2022-08-24T02:47:20;16.00;;;14.38;;
11514;SDS011;5814;41.936;25.556;2022-08-24T02:49:47;15.38;;;14.13;;
11514;SDS011;5814;41.936;25.556;2022-08-24T02:52:14;15.52;;;14.25;;
11514;SDS011;5814;41.936;25.556;2022-08-24T02:54:43;15.68;;;14.38;;
11514;SDS011;5814;41.936;25.556;2022-08-24T02:57:10;17.05;;;15.68;;
11514;SDS011;5814;41.936;25.556;2022-08-24T02:59:38;17.15;;;15.68;;
11514;SDS011;5814;41.936;25.556;2022-08-24T03:02:05;17.75;;;15.82;;
11514;SDS011;5814;41.936;25.556;2022-08-24T03:04:32;16.35;;;15.23;;
11514;SDS011;5814;41.936;25.556;2022-08-24T03:06:59;17.37;;;15.85;;
11514;SDS011;5814;41.936;25.556;2022-08-24T03:09:26;16.60;;;15.05;;
11514;SDS011;5814;41.936;25.556;2022-08-24T03:11:53;16.27;;;14.80;;
11514;SDS011;5814;41.936;25.556;2022-08-24T03:14:21;16.60;;;15.27;;
11514;SDS011;5814;41.936;25.556;2022-08-24T03:16:48;20.25;;;15.80;;
11514;SDS011;5814;41.936;25.556;2022-08-24T03:19:15;15.77;;;14.45;;
11514;SDS011;5814;41.936;25.556;2022-08-24T03:21:42;15.57;;;14.27;;
11514;SDS011;5814;41.936;25.556;2022-08-24T03:24:10;18.33;;;13.80;;
11514;SDS011;5814;41.936;25.556;2022-08-24T03:26:37;14.25;;;13.15;;
11514;SDS011;5814;41.936;25.556;2022-08-24T03:29:04;16.23;;;15.02;;
11514;SDS011;5814;41.936;25.556;2022-08-24T03:34:08;18.75;;;13.50;;
11514;SDS011;5814;41.936;25.556;2022-08-24T03:36:35;13.95;;;12.90;;
11514;SDS011;5814;41.936;25.556;2022-08-24T03:39:02;14.55;;;13.15;;
11514;SDS011;5814;41.936;25.556;2022-08-24T03:41:30;13.02;;;12.02;;
11514;SDS011;5814;41.936;25.556;2022-08-24T03:43:59;14.13;;;12.82;;
11514;SDS011;5814;41.936;25.556;2022-08-24T03:46:27;16.08;;;12.85;;
11514;SDS011;5814;41.936;25.556;2022-08-24T03:48:54;14.68;;;13.23;;
11514;SDS011;5814;41.936;25.556;2022-08-24T03:51:22;13.52;;;12.23;;
11514;SDS011;5814;41.936;25.556;2022-08-24T03:53:48;12.18;;;11.00;;
11514;SDS011;5814;41.936;25.556;2022-08-24T03:56:15;13.68;;;12.23;;
11514;SDS011;5814;41.936;25.556;2022-08-24T03:58:42;12.63;;;11.52;;
11514;SDS011;5814;41.936;25.556;2022-08-24T04:01:10;17.60;;;10.75;;
11514;SDS011;5814;41.936;25.556;2022-08-24T04:03:37;12.45;;;11.45;;
11514;SDS011;5814;41.936;25.556;2022-08-24T04:06:04;12.68;;;11.40;;
11514;SDS011;5814;41.936;25.556;2022-08-24T04:08:31;11.52;;;10.63;;
11514;SDS011;5814;41.936;25.556;2022-08-24T04:10:59;12.55;;;10.80;;
11514;SDS011;5814;41.936;25.556;2022-08-24T04:13:26;12.15;;;10.80;;
11514;SDS011;5814;41.936;25.556;2022-08-24T04:15:53;11.35;;;10.45;;
11514;SDS011;5814;41.936;25.556;2022-08-24T04:18:20;12.25;;;11.10;;
11514;SDS011;5814;41.936;25.556;2022-08-24T04:20:48;12.82;;;11.50;;
11514;SDS011;5814;41.936;25.556;2022-08-24T04:23:15;12.98;;;11.68;;
11514;SDS011;5814;41.936;25.556;2022-08-24T04:25:44;12.15;;;11.05;;
11514;SDS011;5814;41.936;25.556;2022-08-24T04:28:10;12.68;;;10.93;;
11514;SDS011;5814;41.936;25.556;2022-08-24T04:30:39;11.55;;;10.40;;
11514;SDS011;5814;41.936;25.556;2022-08-24T04:33:05;12.75;;;10.20;;
11514;SDS011;5814;41.936;25.556;2022-08-24T04:35:35;11.50;;;10.60;;
11514;SDS011;5814;41.936;25.556;2022-08-24T04:37:59;11.90;;;11.00;;
11514;SDS011;5814;41.936;25.556;2022-08-24T04:40:38;11.55;;;10.65;;
11514;SDS011;5814;41.936;25.556;2022-08-24T04:43:05;12.60;;;11.27;;
11514;SDS011;5814;41.936;25.556;2022-08-24T04:45:32;13.30;;;10.85;;
11514;SDS011;5814;41.936;25.556;2022-08-24T04:47:59;11.95;;;10.55;;
11514;SDS011;5814;41.936;25.556;2022-08-24T04:50:26;15.07;;;11.77;;
11514;SDS011;5814;41.936;25.556;2022-08-24T04:52:53;11.60;;;10.65;;
11514;SDS011;5814;41.936;25.556;2022-08-24T04:55:20;16.92;;;11.43;;
11514;SDS011;5814;41.936;25.556;2022-08-24T04:57:47;11.20;;;10.50;;
11514;SDS011;5814;41.936;25.556;2022-08-24T05:00:15;13.90;;;11.60;;
11514;SDS011;5814;41.936;25.556;2022-08-24T05:02:42;12.57;;;11.27;;
11514;SDS011;5814;41.936;25.556;2022-08-24T05:05:09;11.90;;;10.75;;
11514;SDS011;5814;41.936;25.556;2022-08-24T05:07:37;13.10;;;11.30;;
11514;SDS011;5814;41.936;25.556;2022-08-24T05:10:04;11.88;;;10.77;;
11514;SDS011;5814;41.936;25.556;2022-08-24T05:12:31;10.98;;;9.95;;
11514;SDS011;5814;41.936;25.556;2022-08-24T05:14:59;11.43;;;10.40;;
11514;SDS011;5814;41.936;25.556;2022-08-24T05:17:27;11.23;;;10.32;;
11514;SDS011;5814;41.936;25.556;2022-08-24T05:19:54;12.68;;;11.63;;
11514;SDS011;5814;41.936;25.556;2022-08-24T05:22:21;11.07;;;10.07;;
11514;SDS011;5814;41.936;25.556;2022-08-24T05:24:48;11.70;;;10.50;;
11514;SDS011;5814;41.936;25.556;2022-08-24T05:27:18;13.30;;;10.43;;
11514;SDS011;5814;41.936;25.556;2022-08-24T05:29:45;12.55;;;10.25;;
11514;SDS011;5814;41.936;25.556;2022-08-24T05:32:12;12.07;;;10.63;;
11514;SDS011;5814;41.936;25.556;2022-08-24T05:34:39;11.23;;;10.32;;
11514;SDS011;5814;41.936;25.556;2022-08-24T05:37:06;10.68;;;9.88;;
11514;SDS011;5814;41.936;25.556;2022-08-24T05:39:34;10.48;;;9.68;;
11514;SDS011;5814;41.936;25.556;2022-08-24T05:42:01;9.40;;;8.80;;
11514;SDS011;5814;41.936;25.556;2022-08-24T05:44:28;10.02;;;9.13;;
11514;SDS011;5814;41.936;25.556;2022-08-24T05:46:56;9.55;;;8.75;;
11514;SDS011;5814;41.936;25.556;2022-08-24T05:49:23;10.43;;;9.40;;
11514;SDS011;5814;41.936;25.556;2022-08-24T05:51:50;9.68;;;8.70;;
11514;SDS011;5814;41.936;25.556;2022-08-24T05:54:18;10.45;;;9.57;;
11514;SDS011;5814;41.936;25.556;2022-08-24T05:56:45;10.10;;;9.30;;
11514;SDS011;5814;41.936;25.556;2022-08-24T05:59:12;10.70;;;9.52;;
11514;SDS011;5814;41.936;25.556;2022-08-24T06:01:41;9.18;;;8.27;;
11514;SDS011;5814;41.936;25.556;2022-08-24T06:04:14;9.50;;;8.70;;
11514;SDS011;5814;41.936;25.556;2022-08-24T06:06:42;10.00;;;9.10;;
11514;SDS011;5814;41.936;25.556;2022-08-24T06:09:09;10.80;;;9.70;;
11514;SDS011;5814;41.936;25.556;2022-08-24T06:11:37;9.88;;;8.88;;
11514;SDS011;5814;41.936;25.556;2022-08-24T06:14:05;9.52;;;8.63;;
11514;SDS011;5814;41.936;25.556;2022-08-24T06:16:33;8.98;;;8.07;;
11514;SDS011;5814;41.936;25.556;2022-08-24T06:18:58;9.80;;;8.60;;
11514;SDS011;5814;41.936;25.556;2022-08-24T06:21:25;10.73;;;9.48;;
11514;SDS011;5814;41.936;25.556;2022-08-24T06:23:54;10.80;;;9.77;;
11514;SDS011;5814;41.936;25.556;2022-08-24T06:26:21;10.52;;;9.52;;
11514;SDS011;5814;41.936;25.556;2022-08-24T06:28:54;9.00;;;8.40;;
11514;SDS011;5814;41.936;25.556;2022-08-24T06:31:21;8.45;;;7.85;;
11514;SDS011;5814;41.936;25.556;2022-08-24T06:33:48;8.82;;;7.75;;
11514;SDS011;5814;41.936;25.556;2022-08-24T06:36:15;8.60;;;7.80;;
11514;SDS011;5814;41.936;25.556;2022-08-24T06:38:42;11.07;;;8.93;;
11514;SDS011;5814;41.936;25.556;2022-08-24T06:41:10;8.85;;;8.20;;
11514;SDS011;5814;41.936;25.556;2022-08-24T06:43:37;8.73;;;8.02;;
11514;SDS011;5814;41.936;25.556;2022-08-24T06:46:04;12.93;;;8.85;;
11514;SDS011;5814;41.936;25.556;2022-08-24T06:48:31;10.10;;;8.32;;
11514;SDS011;5814;41.936;25.556;2022-08-24T06:50:58;8.10;;;7.57;;
11514;SDS011;5814;41.936;25.556;2022-08-24T06:53:26;8.93;;;8.20;;
11514;SDS011;5814;41.936;25.556;2022-08-24T06:55:54;8.35;;;7.85;;
11514;SDS011;5814;41.936;25.556;2022-08-24T06:58:20;8.20;;;7.50;;
11514;SDS011;5814;41.936;25.556;2022-08-24T07:00:47;10.77;;;8.63;;
11514;SDS011;5814;41.936;25.556;2022-08-24T07:03:14;10.10;;;8.68;;
11514;SDS011;5814;41.936;25.556;2022-08-24T07:08:16;9.23;;;8.52;;
11514;SDS011;5814;41.936;25.556;2022-08-24T07:10:43;9.25;;;8.25;;
11514;SDS011;5814;41.936;25.556;2022-08-24T07:13:11;9.07;;;8.27;;
11514;SDS011;5814;41.936;25.556;2022-08-24T07:15:39;9.30;;;8.25;;
11514;SDS011;5814;41.936;25.556;2022-08-24T07:18:06;8.82;;;8.23;;
11514;SDS011;5814;41.936;25.556;2022-08-24T07:20:33;8.43;;;7.87;;
11514;SDS011;5814;41.936;25.556;2022-08-24T07:23:00;9.35;;;8.57;;
11514;SDS011;5814;41.936;25.556;2022-08-24T07:25:28;9.95;;;8.65;;
11514;SDS011;5814;41.936;25.556;2022-08-24T07:27:54;10.70;;;8.70;;
11514;SDS011;5814;41.936;25.556;2022-08-24T07:30:21;9.20;;;8.35;;
11514;SDS011;5814;41.936;25.556;2022-08-24T07:32:49;8.98;;;8.27;;
11514;SDS011;5814;41.936;25.556;2022-08-24T07:35:16;9.48;;;8.70;;
11514;SDS011;5814;41.936;25.556;2022-08-24T07:37:43;8.82;;;8.10;;
11514;SDS011;5814;41.936;25.556;2022-08-24T07:40:10;8.10;;;7.50;;
11514;SDS011;5814;41.936;25.556;2022-08-24T07:42:37;8.65;;;7.80;;
11514;SDS011;5814;41.936;25.556;2022-08-24T07:45:06;7.87;;;7.25;;
11514;SDS011;5814;41.936;25.556;2022-08-24T07:47:33;8.80;;;8.20;;
11514;SDS011;5814;41.936;25.556;2022-08-24T07:50:00;7.72;;;7.12;;
11514;SDS011;5814;41.936;25.556;2022-08-24T07:52:27;9.88;;;9.07;;
11514;SDS011;5814;41.936;25.556;2022-08-24T07:54:55;9.02;;;7.87;;
11514;SDS011;5814;41.936;25.556;2022-08-24T07:57:22;8.98;;;8.07;;
11514;SDS011;5814;41.936;25.556;2022-08-24T07:59:49;8.35;;;7.75;;
11514;SDS011;5814;41.936;25.556;2022-08-24T08:02:16;8.85;;;8.00;;
11514;SDS011;5814;41.936;25.556;2022-08-24T08:04:43;7.93;;;7.12;;
11514;SDS011;5814;41.936;25.556;2022-08-24T08:07:10;7.97;;;7.35;;
11514;SDS011;5814;41.936;25.556;2022-08-24T08:09:38;8.20;;;7.50;;
11514;SDS011;5814;41.936;25.556;2022-08-24T08:12:05;8.43;;;7.68;;
11514;SDS011;5814;41.936;25.556;2022-08-24T08:14:34;8.45;;;7.72;;
11514;SDS011;5814;41.936;25.556;2022-08-24T08:17:01;8.70;;;7.93;;
11514;SDS011;5814;41.936;25.556;2022-08-24T08:19:28;9.32;;;8.50;;
11514;SDS011;5814;41.936;25.556;2022-08-24T08:21:55;8.15;;;7.53;;
11514;SDS011;5814;41.936;25.556;2022-08-24T08:24:28;7.72;;;7.03;;
11514;SDS011;5814;41.936;25.556;2022-08-24T08:26:56;8.93;;;7.75;;
11514;SDS011;5814;41.936;25.556;2022-08-24T08:29:24;10.43;;;7.40;;
11514;SDS011;5814;41.936;25.556;2022-08-24T08:31:51;13.48;;;8.43;;
11514;SDS011;5814;41.936;25.556;2022-08-24T08:34:18;8.15;;;7.37;;
11514;SDS011;5814;41.936;25.556;2022-08-24T08:36:45;8.88;;;7.80;;
11514;SDS011;5814;41.936;25.556;2022-08-24T08:39:14;9.60;;;8.70;;
11514;SDS011;5814;41.936;25.556;2022-08-24T08:44:31;8.63;;;7.47;;
11514;SDS011;5814;41.936;25.556;2022-08-24T08:58:02;8.68;;;7.97;;
11514;SDS011;5814;41.936;25.556;2022-08-24T09:03:28;8.23;;;7.32;;
11514;SDS011;5814;41.936;25.556;2022-08-24T09:05:58;10.55;;;8.85;;
11514;SDS011;5814;41.936;25.556;2022-08-24T09:08:33;10.75;;;8.30;;
11514;SDS011;5814;41.936;25.556;2022-08-24T09:11:07;8.93;;;7.97;;
11514;SDS011;5814;41.936;25.556;2022-08-24T09:13:54;8.43;;;7.62;;
11514;SDS011;5814;41.936;25.556;2022-08-24T09:19:24;8.77;;;7.97;;
11514;SDS011;5814;41.936;25.556;2022-08-24T09:22:13;8.73;;;7.85;;
11514;SDS011;5814;41.936;25.556;2022-08-24T09:25:56;7.60;;;7.10;;
11514;SDS011;5814;41.936;25.556;2022-08-24T09:27:33;8.68;;;7.87;;
11514;SDS011;5814;41.936;25.556;2022-08-24T09:30:09;8.88;;;8.15;;
11514;SDS011;5814;41.936;25.556;2022-08-24T09:32:44;8.38;;;7.68;;
11514;SDS011;5814;41.936;25.556;2022-08-24T09:35:12;11.60;;;8.00;;
11514;SDS011;5814;41.936;25.556;2022-08-24T09:37:43;10.15;;;8.40;;
11514;SDS011;5814;41.936;25.556;2022-08-24T09:40:33;8.85;;;8.20;;
11514;SDS011;5814;41.936;25.556;2022-08-24T09:43:19;12.13;;;7.80;;
11514;SDS011;5814;41.936;25.556;2022-08-24T09:45:55;8.57;;;7.70;;
11514;SDS011;5814;41.936;25.556;2022-08-24T09:51:05;12.50;;;7.60;;
11514;SDS011;5814;41.936;25.556;2022-08-24T09:53:36;9.25;;;7.53;;
11514;SDS011;5814;41.936;25.556;2022-08-24T09:56:10;10.25;;;8.07;;
11514;SDS011;5814;41.936;25.556;2022-08-24T10:01:38;12.43;;;7.68;;
11514;SDS011;5814;41.936;25.556;2022-08-24T10:04:22;8.90;;;7.93;;
11514;SDS011;5814;41.936;25.556;2022-08-24T10:06:55;11.32;;;7.55;;
11514;SDS011;5814;41.936;25.556;2022-08-24T10:12:19;11.65;;;7.70;;
11514;SDS011;5814;41.936;25.556;2022-08-24T10:14:50;7.78;;;6.97;;
11514;SDS011;5814;41.936;25.556;2022-08-24T10:17:33;8.40;;;7.50;;
11514;SDS011;5814;41.936;25.556;2022-08-24T10:20:20;14.70;;;7.62;;
11514;SDS011;5814;41.936;25.556;2022-08-24T10:25:34;10.40;;;7.15;;
11514;SDS011;5814;41.936;25.556;2022-08-24T10:28:16;12.23;;;8.23;;
11514;SDS011;5814;41.936;25.556;2022-08-24T10:30:47;8.68;;;6.97;;
11514;SDS011;5814;41.936;25.556;2022-08-24T10:33:30;12.75;;;7.80;;
11514;SDS011;5814;41.936;25.556;2022-08-24T10:36:22;7.87;;;7.18;;
11514;SDS011;5814;41.936;25.556;2022-08-24T10:42:06;14.98;;;8.40;;
11514;SDS011;5814;41.936;25.556;2022-08-24T10:47:22;8.60;;;7.07;;
11514;SDS011;5814;41.936;25.556;2022-08-24T10:52:46;13.75;;;8.15;;
11514;SDS011;5814;41.936;25.556;2022-08-24T10:55:21;16.20;;;8.65;;
11514;SDS011;5814;41.936;25.556;2022-08-24T10:57:54;10.27;;;7.47;;
11514;SDS011;5814;41.936;25.556;2022-08-24T11:00:25;8.95;;;7.72;;
11514;SDS011;5814;41.936;25.556;2022-08-24T11:03:04;11.82;;;7.55;;
11514;SDS011;5814;41.936;25.556;2022-08-24T11:05:27;10.23;;;7.30;;
11514;SDS011;5814;41.936;25.556;2022-08-24T11:07:56;8.55;;;7.12;;
11514;SDS011;5814;41.936;25.556;2022-08-24T11:10:26;9.05;;;7.10;;
11514;SDS011;5814;41.936;25.556;2022-08-24T11:12:51;10.88;;;7.90;;
11514;SDS011;5814;41.936;25.556;2022-08-24T11:15:21;11.40;;;7.03;;
11514;SDS011;5814;41.936;25.556;2022-08-24T11:20:28;13.65;;;7.30;;
11514;SDS011;5814;41.936;25.556;2022-08-24T11:25:43;10.18;;;7.22;;
11514;SDS011;5814;41.936;25.556;2022-08-24T11:28:17;7.87;;;6.82;;
11514;SDS011;5814;41.936;25.556;2022-08-24T11:30:44;21.92;;;11.18;;
11514;SDS011;5814;41.936;25.556;2022-08-24T11:33:33;14.05;;;7.53;;
11514;SDS011;5814;41.936;25.556;2022-08-24T11:35:59;13.82;;;7.30;;
11514;SDS011;5814;41.936;25.556;2022-08-24T11:38:27;13.60;;;7.30;;
11514;SDS011;5814;41.936;25.556;2022-08-24T11:40:56;8.15;;;7.35;;
11514;SDS011;5814;41.936;25.556;2022-08-24T11:44:03;15.25;;;7.57;;
11514;SDS011;5814;41.936;25.556;2022-08-24T11:49:12;8.52;;;6.10;;
11514;SDS011;5814;41.936;25.556;2022-08-24T11:52:02;13.50;;;7.15;;
11514;SDS011;5814;41.936;25.556;2022-08-24T11:54:31;10.63;;;6.60;;
11514;SDS011;5814;41.936;25.556;2022-08-24T11:59:56;12.88;;;6.50;;
11514;SDS011;5814;41.936;25.556;2022-08-24T12:02:31;12.27;;;6.20;;
11514;SDS011;5814;41.936;25.556;2022-08-24T12:05:03;11.25;;;6.65;;
11514;SDS011;5814;41.936;25.556;2022-08-24T12:07:59;13.85;;;6.35;;
11514;SDS011;5814;41.936;25.556;2022-08-24T12:10:49;12.25;;;6.00;;
11514;SDS011;5814;41.936;25.556;2022-08-24T12:13:24;16.42;;;5.87;;
11514;SDS011;5814;41.936;25.556;2022-08-24T12:15:58;12.52;;;5.97;;
11514;SDS011;5814;41.936;25.556;2022-08-24T12:18:23;16.50;;;6.50;;
11514;SDS011;5814;41.936;25.556;2022-08-24T12:20:50;19.02;;;6.53;;
11514;SDS011;5814;41.936;25.556;2022-08-24T12:23:23;13.25;;;5.70;;
11514;SDS011;5814;41.936;25.556;2022-08-24T12:25:47;13.65;;;5.78;;
11514;SDS011;5814;41.936;25.556;2022-08-24T12:28:23;22.45;;;6.00;;
11514;SDS011;5814;41.936;25.556;2022-08-24T12:30:49;16.25;;;5.75;;
11514;SDS011;5814;41.936;25.556;2022-08-24T12:33:25;15.43;;;5.70;;
11514;SDS011;5814;41.936;25.556;2022-08-24T12:35:44;17.17;;;5.53;;
11514;SDS011;5814;41.936;25.556;2022-08-24T12:38:13;12.70;;;5.25;;
11514;SDS011;5814;41.936;25.556;2022-08-24T12:40:46;18.85;;;5.60;;
11514;SDS011;5814;41.936;25.556;2022-08-24T12:43:20;16.27;;;6.00;;
11514;SDS011;5814;41.936;25.556;2022-08-24T12:46:00;12.80;;;5.70;;
11514;SDS011;5814;41.936;25.556;2022-08-24T12:48:36;13.32;;;5.93;;
11514;SDS011;5814;41.936;25.556;2022-08-24T12:51:17;14.60;;;5.93;;
11514;SDS011;5814;41.936;25.556;2022-08-24T12:59:24;14.27;;;5.80;;
11514;SDS011;5814;41.936;25.556;2022-08-24T13:01:56;17.17;;;5.40;;
11514;SDS011;5814;41.936;25.556;2022-08-24T13:04:31;19.75;;;5.97;;
11514;SDS011;5814;41.936;25.556;2022-08-24T13:07:05;12.02;;;5.47;;
11514;SDS011;5814;41.936;25.556;2022-08-24T13:09:34;18.48;;;6.05;;
11514;SDS011;5814;41.936;25.556;2022-08-24T13:12:46;18.85;;;6.18;;
11514;SDS011;5814;41.936;25.556;2022-08-24T13:14:38;20.92;;;6.80;;
11514;SDS011;5814;41.936;25.556;2022-08-24T13:17:07;18.87;;;5.95;;
11514;SDS011;5814;41.936;25.556;2022-08-24T13:19:37;19.45;;;7.05;;
11514;SDS011;5814;41.936;25.556;2022-08-24T13:25:25;19.85;;;7.07;;
11514;SDS011;5814;41.936;25.556;2022-08-24T13:28:07;21.45;;;6.90;;
11514;SDS011;5814;41.936;25.556;2022-08-24T13:30:34;19.48;;;5.75;;
11514;SDS011;5814;41.936;25.556;2022-08-24T13:33:02;19.92;;;6.22;;
11514;SDS011;5814;41.936;25.556;2022-08-24T13:35:34;15.20;;;6.28;;
11514;SDS011;5814;41.936;25.556;2022-08-24T13:40:43;16.55;;;6.10;;
11514;SDS011;5814;41.936;25.556;2022-08-24T13:43:09;12.43;;;5.80;;
11514;SDS011;5814;41.936;25.556;2022-08-24T13:48:23;17.27;;;6.30;;
11514;SDS011;5814;41.936;25.556;2022-08-24T13:56:38;15.32;;;5.80;;
11514;SDS011;5814;41.936;25.556;2022-08-24T13:59:12;14.45;;;6.37;;
11514;SDS011;5814;41.936;25.556;2022-08-24T14:02:18;14.65;;;5.87;;
11514;SDS011;5814;41.936;25.556;2022-08-24T14:05:07;12.55;;;5.93;;
11514;SDS011;5814;41.936;25.556;2022-08-24T14:10:13;20.65;;;6.68;;
11514;SDS011;5814;41.936;25.556;2022-08-24T14:13:02;21.77;;;6.32;;
11514;SDS011;5814;41.936;25.556;2022-08-24T14:15:52;13.05;;;6.70;;
11514;SDS011;5814;41.936;25.556;2022-08-24T14:18:24;23.60;;;6.85;;
11514;SDS011;5814;41.936;25.556;2022-08-24T14:21:06;14.48;;;6.50;;
11514;SDS011;5814;41.936;25.556;2022-08-24T14:23:33;22.73;;;6.28;;
11514;SDS011;5814;41.936;25.556;2022-08-24T14:28:40;19.05;;;6.43;;
11514;SDS011;5814;41.936;25.556;2022-08-24T14:31:13;15.32;;;6.32;;
11514;SDS011;5814;41.936;25.556;2022-08-24T14:33:50;19.52;;;6.93;;
11514;SDS011;5814;41.936;25.556;2022-08-24T14:36:18;19.58;;;6.82;;
11514;SDS011;5814;41.936;25.556;2022-08-24T14:38:52;17.92;;;6.90;;
11514;SDS011;5814;41.936;25.556;2022-08-24T14:41:19;24.02;;;6.20;;
11514;SDS011;5814;41.936;25.556;2022-08-24T14:44:00;21.10;;;6.30;;
11514;SDS011;5814;41.936;25.556;2022-08-24T14:46:45;17.90;;;6.45;;
11514;SDS011;5814;41.936;25.556;2022-08-24T14:49:23;14.65;;;6.32;;
11514;SDS011;5814;41.936;25.556;2022-08-24T14:52:09;23.98;;;6.93;;
11514;SDS011;5814;41.936;25.556;2022-08-24T14:54:41;21.83;;;6.68;;
11514;SDS011;5814;41.936;25.556;2022-08-24T14:57:19;23.08;;;7.00;;
11514;SDS011;5814;41.936;25.556;2022-08-24T15:00:04;23.58;;;6.82;;
11514;SDS011;5814;41.936;25.556;2022-08-24T15:02:33;24.65;;;8.00;;
11514;SDS011;5814;41.936;25.556;2022-08-24T15:06:21;24.73;;;6.22;;
11514;SDS011;5814;41.936;25.556;2022-08-24T15:08:09;16.75;;;6.68;;
11514;SDS011;5814;41.936;25.556;2022-08-24T15:13:25;23.30;;;6.65;;
11514;SDS011;5814;41.936;25.556;2022-08-24T15:15:52;20.12;;;6.30;;
11514;SDS011;5814;41.936;25.556;2022-08-24T15:18:26;23.25;;;7.20;;
11514;SDS011;5814;41.936;25.556;2022-08-24T15:20:58;25.65;;;7.07;;
11514;SDS011;5814;41.936;25.556;2022-08-24T15:23:44;21.62;;;6.93;;
11514;SDS011;5814;41.936;25.556;2022-08-24T15:26:15;23.77;;;6.57;;
11514;SDS011;5814;41.936;25.556;2022-08-24T15:28:45;20.02;;;6.87;;
11514;SDS011;5814;41.936;25.556;2022-08-24T15:31:07;21.52;;;6.62;;
11514;SDS011;5814;41.936;25.556;2022-08-24T15:33:34;28.92;;;6.82;;
11514;SDS011;5814;41.936;25.556;2022-08-24T15:36:08;23.92;;;6.20;;
11514;SDS011;5814;41.936;25.556;2022-08-24T15:38:34;27.58;;;6.97;;
11514;SDS011;5814;41.936;25.556;2022-08-24T15:41:04;22.60;;;6.87;;
11514;SDS011;5814;41.936;25.556;2022-08-24T15:43:29;23.98;;;7.20;;
11514;SDS011;5814;41.936;25.556;2022-08-24T15:45:57;24.92;;;6.87;;
11514;SDS011;5814;41.936;25.556;2022-08-24T15:48:24;26.45;;;7.18;;
11514;SDS011;5814;41.936;25.556;2022-08-24T15:50:52;20.42;;;6.85;;
11514;SDS011;5814;41.936;25.556;2022-08-24T15:53:25;27.55;;;6.55;;
11514;SDS011;5814;41.936;25.556;2022-08-24T15:56:24;24.30;;;6.87;;
11514;SDS011;5814;41.936;25.556;2022-08-24T15:58:50;28.90;;;6.90;;
11514;SDS011;5814;41.936;25.556;2022-08-24T16:01:19;31.20;;;6.75;;
11514;SDS011;5814;41.936;25.556;2022-08-24T16:03:52;20.80;;;6.37;;
11514;SDS011;5814;41.936;25.556;2022-08-24T16:06:22;25.80;;;7.07;;
11514;SDS011;5814;41.936;25.556;2022-08-24T16:11:25;27.77;;;7.35;;
11514;SDS011;5814;41.936;25.556;2022-08-24T16:13:53;28.00;;;7.05;;
11514;SDS011;5814;41.936;25.556;2022-08-24T16:16:29;21.27;;;6.53;;
11514;SDS011;5814;41.936;25.556;2022-08-24T16:18:56;21.23;;;6.68;;